Monmouth, NJ

1:50 AM EDT on November 01, 2014 (GMT -0400)
Shrewsbury | Change Station
CLOSE
Current Station
Personal Weather Station
Location: Shrewsbury, NJ
Elevation: 6 ft
Nearby Weather Stations

Elev 6 ft 40.32 °N, 74.06 °W | Updated 9 minutes ago

Overcast
Overcast
50.2 °F
Feels Like 50.2 °F
N
2.0
Wind Variable Wind from WNW
Gusts 5.4 mph

Today
High -- | Low -- °F
--% Chance of Precip.
Yesterday
High -- | Low -- °F
Precip. -- in
7:25 AM 5:53 PM
Waxing Gibbous, 63% visible
Pressure 29.79 in
Visibility 10.0 miles
Clouds Overcast 900 ft
Dew Point 46 °F
Humidity 86%
Rainfall 0.00 in
Snow Depth Not available.
UV 0 out of 12
Pollen .10 out of 12
Air Quality Not available.
Flu Activity Not available.
METAR KBLM 010535Z AUTO 04014G19KT 10SM OVC009 10/06 A2979 RMK AO1

More Conditions Fewer Conditions

Pressure 29.79 in
Visibility 10.0 miles
Clouds Overcast 900 ft
Dew Point 46 °F
Humidity 86%
Rainfall 0.00 in
Snow Depth Not available.
UV 0 out of 12
Pollen .10 out of 12
Air Quality Not available.
Flu Activity Not available.
METAR KBLM 010535Z AUTO 04014G19KT 10SM OVC009 10/06 A2979 RMK AO1

More Conditions Fewer Conditions

Nowcast | as of 12:17 am EDT on November 1, 2014

Rain showers will move across the area and increase in coverage during the overnight hours. Most rain is expected to be light, although some moderate showers may move onshore. Rain amounts will generally be around a couple of hundredths of an inch per hour where it falls, with isolated higher amounts with moderate showers. Northeast winds around 10 to 15 mph with gusts around 20 mph will continue.

×

10-Day Weather Forecast

Almanac

Astronomy

Nov. 01, 2014 Rise Set
Actual Time
Civil Twilight
Nautical Twilight
Astronomical Twilight
Moon
Length of Visible Light
Length of Day
Tomorrow will be .
, % of the Moon is Illuminated

Today's Extremes

State Highs State Lows

Community

WunderPhotos

Upload Photos

1,766,863 photos uploaded!

WunderBlogs® & News

Nearby

Air Quality

  Air Quality AQ Index Pollutant
Not available.

Snow Depth

Station Depth Elevation

Earthquake Activity

City Distance Mag. Time & Date
Minimum magnitude displayed is 2.5.

Coastal Water Temperatures

Place Temperature

Nearby Weather Stations